Overview Statistics Trail Chart Weather Telemetry Raw packets
 

This is the latest recevied weather packets stored in our database for station/object WABI. If no packets are shown the sender has not sent any weather packets the latest 10 day(s).

<< 2 3 4 5 6 7 8 >>
Time Temp. Humidity Pressure Rain* Wind** Luminosity Snow
1788013091 22.78° C 99% 1015 hPa 0 mm - - -
1788008755 22.78° C 99% 1015 hPa 0 mm - - -
1788004304 23.89° C 94% 1014 hPa 0 mm - - -
1788001903 23.89° C 94% 1014 hPa 0 mm - - -
1787992952 27.22° C 89% 1010 hPa 0 mm - - -
1787990864 27.22° C 89% 1010 hPa 0 mm - - -
1787988544 27.78° C 84% 1010 hPa 0 mm - - -
1787982302 30° C 70% 1011 hPa 0 mm - - -
1787977593 31.11° C 66% 1012 hPa 0 mm - - -
1787972916 28.89° C 74% 1013 hPa 0 mm - - -
1787968512 27.78° C 79% 1014 hPa 0 mm - - -
1787964168 27.22° C 84% 1014 hPa 0 mm - - -
1787962038 26.11° C 89% 1014 hPa 0 mm - - -
1787957659 25° C 94% 1012 hPa 0 mm - - -
1787921516 28.89° C 79% 1011 hPa 0 mm - - -
1787919549 28.89° C 79% 1011 hPa 0 mm - - -
1787917577 28.89° C 79% 1011 hPa 0 mm - - -
1787915592 28.89° C 79% 1011 hPa 0 mm - - -
1787913615 28.89° C 79% 1011 hPa 0 mm - - -
1787911643 28.89° C 79% 1011 hPa 0 mm - - -
1787909680 30° C 75% 1010 hPa 0 mm - - -
1787907731 30° C 70% 1010 hPa 0 mm - - -
1787905750 30° C 70% 1010 hPa 0 mm - - -
1787903786 30° C 70% 1009 hPa 0 mm - - -
1787901818 30° C 70% 1009 hPa 0 mm - - -

* Rain latest hour (hover to see other rain measurements)
** Current wind speed in m/s (hover to see current wind gust speed)